createdAt,value
2023-03-16T00:00:00.366Z,13.43
2023-03-16T00:02:32.967Z,13.55
2023-03-16T00:05:03.571Z,11.50
2023-03-16T00:07:32.631Z,15.25
2023-03-16T00:10:01.523Z,15.43
2023-03-16T00:12:34.931Z,15.48
2023-03-16T00:15:07.659Z,11.93
2023-03-16T00:17:40.267Z,13.85
2023-03-16T00:20:12.969Z,14.02
2023-03-16T00:22:41.999Z,10.77
2023-03-16T00:25:16.276Z,14.80
2023-03-16T00:27:47.946Z,13.65
2023-03-16T00:30:16.581Z,13.07
2023-03-16T00:32:46.341Z,14.60
2023-03-16T00:35:19.359Z,14.50
2023-03-16T00:37:48.125Z,13.98
2023-03-16T00:40:17.494Z,12.52
2023-03-16T00:42:46.071Z,14.73
2023-03-16T00:45:14.563Z,13.95
2023-03-16T00:47:44.534Z,13.73
2023-03-16T00:50:22.436Z,13.25
2023-03-16T00:52:54.463Z,15.38
2023-03-16T00:55:23.005Z,12.55
2023-03-16T00:57:51.539Z,13.27
2023-03-16T01:00:21.640Z,12.13
2023-03-16T01:02:50.081Z,16.70
2023-03-16T01:05:23.320Z,13.48
2023-03-16T01:07:55.392Z,15.93
2023-03-16T01:10:34.816Z,12.57
2023-03-16T01:13:08.647Z,14.10
2023-03-16T01:15:39.156Z,13.73
2023-03-16T01:18:09.411Z,13.43
2023-03-16T01:20:39.366Z,14.18
2023-03-16T01:23:08.082Z,14.70
2023-03-16T01:25:36.935Z,13.80
2023-03-16T01:28:05.698Z,15.27
2023-03-16T01:30:40.507Z,18.92
2023-03-16T01:33:10.303Z,15.18
2023-03-16T01:35:40.045Z,15.45
2023-03-16T01:38:10.957Z,12.20
2023-03-16T01:40:40.511Z,14.50
2023-03-16T01:43:09.241Z,19.55
2023-03-16T01:46:18.431Z,18.00
2023-03-16T01:49:08.223Z,16.42
2023-03-16T01:51:46.284Z,20.63
2023-03-16T01:54:19.944Z,17.20
2023-03-16T01:56:55.507Z,17.40
2023-03-16T01:59:27.863Z,16.85
2023-03-16T02:01:56.838Z,19.85
2023-03-16T02:04:36.541Z,16.83
2023-03-16T02:07:09.056Z,17.15
2023-03-16T02:09:39.550Z,14.88
2023-03-16T02:12:09.173Z,21.20
2023-03-16T02:14:41.883Z,15.33
2023-03-16T02:17:10.738Z,17.02
2023-03-16T02:19:46.103Z,16.27
2023-03-16T02:22:16.524Z,19.75
2023-03-16T02:24:44.902Z,19.00
2023-03-16T02:27:15.200Z,16.52
2023-03-16T02:29:57.652Z,18.65
2023-03-16T02:32:35.724Z,19.73
2023-03-16T02:35:04.936Z,18.90
2023-03-16T02:37:34.551Z,17.95
2023-03-16T02:40:15.170Z,18.33
2023-03-16T02:42:44.429Z,14.57
2023-03-16T02:45:17.686Z,18.48
2023-03-16T02:47:48.128Z,16.63
2023-03-16T02:50:17.696Z,17.00
2023-03-16T02:52:49.028Z,16.92
2023-03-16T02:55:21.780Z,17.25
2023-03-16T02:57:50.284Z,16.25
2023-03-16T03:00:22.603Z,13.48
2023-03-16T03:02:53.275Z,14.85
2023-03-16T03:05:22.346Z,15.18
2023-03-16T03:07:51.405Z,16.85
2023-03-16T03:10:20.173Z,16.00
2023-03-16T03:12:50.324Z,15.50
2023-03-16T03:15:19.511Z,20.88
2023-03-16T03:17:59.718Z,15.10
2023-03-16T03:20:33.296Z,15.00
2023-03-16T03:23:05.476Z,16.15
2023-03-16T03:25:35.087Z,17.58
2023-03-16T03:28:05.841Z,17.45
2023-03-16T03:30:34.444Z,18.33
2023-03-16T03:33:04.530Z,20.25
2023-03-16T03:35:33.558Z,15.80
2023-03-16T03:38:03.129Z,16.33
2023-03-16T03:40:32.229Z,16.27
2023-03-16T03:43:04.938Z,17.13
2023-03-16T03:45:36.499Z,16.02
2023-03-16T03:48:07.201Z,18.42
2023-03-16T03:50:35.735Z,18.58
2023-03-16T03:53:19.770Z,19.45
2023-03-16T03:56:10.221Z,22.05
2023-03-16T03:58:39.869Z,16.35
2023-03-16T04:01:08.942Z,18.95
2023-03-16T04:03:39.280Z,15.18
2023-03-16T04:06:09.479Z,15.68
2023-03-16T04:08:38.352Z,16.73
2023-03-16T04:11:12.445Z,17.40
2023-03-16T04:13:43.728Z,17.75
2023-03-16T04:16:16.320Z,19.83
2023-03-16T04:18:49.144Z,19.47
2023-03-16T04:21:18.842Z,20.58
2023-03-16T04:23:49.200Z,21.90
2023-03-16T04:26:18.446Z,14.25
2023-03-16T04:28:49.351Z,18.92
2023-03-16T04:31:20.517Z,19.60
2023-03-16T04:33:54.871Z,18.23
2023-03-16T04:36:25.350Z,15.90
2023-03-16T04:38:56.814Z,20.38
2023-03-16T04:41:25.958Z,20.65
2023-03-16T04:44:02.252Z,20.83
2023-03-16T04:46:32.619Z,20.38
2023-03-16T04:49:09.229Z,19.77
2023-03-16T04:51:40.727Z,22.95
2023-03-16T04:54:13.464Z,21.48
2023-03-16T04:56:44.554Z,20.83
2023-03-16T04:59:27.064Z,17.98
2023-03-16T05:02:08.964Z,21.02
2023-03-16T05:04:39.703Z,17.73
2023-03-16T05:07:11.802Z,20.55
2023-03-16T05:09:43.927Z,16.48
2023-03-16T05:12:13.343Z,17.15
2023-03-16T05:14:42.102Z,17.98
2023-03-16T05:17:22.645Z,21.38
2023-03-16T05:19:53.145Z,21.80
2023-03-16T05:22:24.816Z,20.85
2023-03-16T05:25:15.103Z,21.58
2023-03-16T05:27:48.582Z,24.98
2023-03-16T05:30:24.020Z,25.42
2023-03-16T05:32:57.910Z,16.58
2023-03-16T05:35:29.365Z,19.35
2023-03-16T05:38:02.713Z,19.95
2023-03-16T05:40:33.324Z,23.58
2023-03-16T05:43:23.260Z,17.58
2023-03-16T05:45:54.804Z,21.45
2023-03-16T05:48:25.827Z,18.75
2023-03-16T05:51:02.740Z,19.50
2023-03-16T05:53:32.114Z,18.52
2023-03-16T05:56:09.282Z,19.05
2023-03-16T05:58:43.412Z,20.02
2023-03-16T06:01:13.536Z,20.80
2023-03-16T06:03:44.628Z,18.70
2023-03-16T06:06:21.878Z,24.45
2023-03-16T06:08:56.889Z,18.30
2023-03-16T06:11:27.700Z,21.85
2023-03-16T06:13:59.622Z,16.42
2023-03-16T06:16:31.219Z,20.42
2023-03-16T06:19:01.413Z,23.63
2023-03-16T06:21:35.471Z,22.35
2023-03-16T06:24:11.190Z,20.92
2023-03-16T06:26:40.256Z,20.08
2023-03-16T06:29:12.292Z,20.27
2023-03-16T06:31:42.292Z,25.10
2023-03-16T06:34:11.989Z,23.15
2023-03-16T06:36:43.148Z,20.10
2023-03-16T06:39:14.833Z,20.00
2023-03-16T06:41:49.702Z,19.58
2023-03-16T06:44:19.536Z,19.13
2023-03-16T06:47:00.797Z,17.92
2023-03-16T06:49:29.714Z,19.48
2023-03-16T06:52:00.886Z,21.38
2023-03-16T06:54:29.716Z,20.55
2023-03-16T06:56:59.434Z,19.33
2023-03-16T06:59:29.310Z,16.63
2023-03-16T07:01:59.094Z,22.25
2023-03-16T07:04:27.711Z,18.70
2023-03-16T07:06:56.332Z,19.50
2023-03-16T07:09:26.201Z,29.05
2023-03-16T07:11:54.532Z,22.17
2023-03-16T07:14:23.532Z,22.52
2023-03-16T07:16:54.103Z,18.95
2023-03-16T07:19:24.566Z,17.48
2023-03-16T07:21:54.048Z,18.38
2023-03-16T07:24:25.448Z,16.83
2023-03-16T07:26:54.139Z,17.50
2023-03-16T07:29:28.340Z,20.65
2023-03-16T07:31:58.162Z,20.50
2023-03-16T07:34:35.651Z,20.90
2023-03-16T07:37:04.163Z,19.27
2023-03-16T07:39:38.719Z,19.75
2023-03-16T07:42:12.506Z,21.10
2023-03-16T07:45:01.749Z,20.50
2023-03-16T07:47:31.788Z,19.48
2023-03-16T07:50:04.875Z,19.17
2023-03-16T07:52:37.543Z,29.35
2023-03-16T07:55:12.157Z,19.55
2023-03-16T07:57:42.326Z,22.25
2023-03-16T08:00:14.294Z,19.63
2023-03-16T08:02:45.309Z,18.80
2023-03-16T08:05:17.398Z,19.45
2023-03-16T08:07:53.094Z,18.15
2023-03-16T08:10:27.021Z,25.40
2023-03-16T08:13:06.160Z,19.48
2023-03-16T08:15:35.929Z,26.58
2023-03-16T08:18:21.502Z,17.95
2023-03-16T08:20:52.376Z,20.83
2023-03-16T08:23:21.369Z,19.05
2023-03-16T08:25:53.621Z,20.45
2023-03-16T08:28:26.202Z,21.85
2023-03-16T08:30:58.643Z,18.35
2023-03-16T08:33:40.019Z,17.42
2023-03-16T08:36:11.847Z,19.90
2023-03-16T08:38:45.395Z,19.00
2023-03-16T08:41:19.082Z,18.30
2023-03-16T08:43:51.367Z,23.17
2023-03-16T08:46:21.915Z,21.50
2023-03-16T08:48:57.041Z,20.17
2023-03-16T08:51:31.349Z,19.95
2023-03-16T08:54:00.285Z,26.20
2023-03-16T08:56:36.544Z,22.50
2023-03-16T08:59:10.479Z,19.45
2023-03-16T09:01:45.892Z,22.38
2023-03-16T09:04:15.254Z,20.25
2023-03-16T09:06:44.308Z,26.92
2023-03-16T09:09:12.681Z,21.73
2023-03-16T09:11:42.742Z,21.55
2023-03-16T09:14:11.593Z,25.08
2023-03-16T09:16:40.292Z,23.95
2023-03-16T09:19:12.023Z,22.45
2023-03-16T09:21:41.459Z,23.08
2023-03-16T09:24:15.082Z,21.90
2023-03-16T09:26:45.816Z,21.75
2023-03-16T09:29:14.827Z,21.90
2023-03-16T09:31:43.503Z,23.38
2023-03-16T09:34:11.996Z,24.92
2023-03-16T09:36:43.586Z,24.33
2023-03-16T09:39:13.550Z,24.13
2023-03-16T09:41:49.905Z,28.85
2023-03-16T09:44:29.385Z,26.95
2023-03-16T09:47:00.469Z,21.75
2023-03-16T09:49:32.672Z,21.80
2023-03-16T09:52:08.099Z,23.40
2023-03-16T09:54:43.306Z,21.70
2023-03-16T09:57:26.006Z,24.90
2023-03-16T09:59:55.191Z,23.40
2023-03-16T10:02:40.671Z,22.33
2023-03-16T10:05:11.155Z,23.38
2023-03-16T10:07:48.338Z,26.65
2023-03-16T10:10:24.037Z,23.30
2023-03-16T10:12:54.957Z,22.35
2023-03-16T10:15:27.488Z,27.80
2023-03-16T10:18:01.367Z,23.77
2023-03-16T10:20:33.503Z,21.35
2023-03-16T10:23:09.692Z,24.95
2023-03-16T10:25:46.236Z,26.10
2023-03-16T10:28:18.377Z,24.83
2023-03-16T10:30:51.505Z,25.95
2023-03-16T10:33:28.135Z,26.13
2023-03-16T10:36:01.646Z,20.75
2023-03-16T10:38:33.245Z,22.35
2023-03-16T10:41:02.514Z,22.95
2023-03-16T10:43:32.454Z,23.30
2023-03-16T10:46:02.878Z,24.63
2023-03-16T10:48:35.004Z,22.30
2023-03-16T10:51:07.130Z,21.63
2023-03-16T10:53:37.432Z,23.95
2023-03-16T10:56:13.261Z,28.13
2023-03-16T10:58:46.493Z,24.05
2023-03-16T11:01:20.877Z,22.33
2023-03-16T11:03:53.464Z,27.20
2023-03-16T11:06:25.015Z,25.65
2023-03-16T11:08:55.209Z,24.15
2023-03-16T11:11:30.262Z,25.52
2023-03-16T11:14:01.601Z,28.33
2023-03-16T11:16:33.220Z,25.20
2023-03-16T11:19:05.689Z,30.50
2023-03-16T11:21:41.231Z,26.60
2023-03-16T11:24:17.285Z,27.58
2023-03-16T11:26:48.891Z,24.95
2023-03-16T11:29:22.258Z,25.67
2023-03-16T11:31:53.594Z,28.67
2023-03-16T11:34:25.881Z,24.65
2023-03-16T11:36:56.229Z,26.58
2023-03-16T11:39:40.671Z,27.88
2023-03-16T11:42:25.532Z,22.70
2023-03-16T11:44:59.529Z,22.83
2023-03-16T11:47:44.461Z,23.67
2023-03-16T11:50:16.259Z,24.13
2023-03-16T11:52:50.888Z,24.85
2023-03-16T11:55:29.067Z,23.92
2023-03-16T11:58:05.895Z,23.45
2023-03-16T12:00:44.756Z,27.45
2023-03-16T12:03:38.064Z,24.23
2023-03-16T12:06:23.384Z,20.92
2023-03-16T12:09:08.459Z,25.05
2023-03-16T12:11:41.623Z,25.70
2023-03-16T12:14:16.718Z,24.35
2023-03-16T12:19:23.263Z,22.88
2023-03-16T12:22:01.411Z,25.40
2023-03-16T12:24:33.303Z,26.38
2023-03-16T12:27:02.550Z,25.33
2023-03-16T12:29:36.958Z,25.52
2023-03-16T12:32:10.678Z,32.00
2023-03-16T12:34:43.769Z,27.45
2023-03-16T12:37:20.596Z,29.10
2023-03-16T12:40:09.383Z,29.05
2023-03-16T12:43:01.920Z,29.67
2023-03-16T12:45:35.472Z,30.55
2023-03-16T12:48:12.791Z,32.15
2023-03-16T12:50:52.693Z,30.92
2023-03-16T12:53:40.500Z,37.03
2023-03-16T12:56:12.717Z,32.58
2023-03-16T12:58:49.457Z,35.53
2023-03-16T13:01:20.042Z,35.53
2023-03-16T13:03:51.429Z,36.50
2023-03-16T13:06:22.481Z,39.00
2023-03-16T13:08:54.510Z,33.97
2023-03-16T13:11:23.084Z,38.70
2023-03-16T13:13:53.777Z,36.75
2023-03-16T13:16:28.691Z,42.40
2023-03-16T13:21:39.457Z,39.90
2023-03-16T13:24:18.235Z,40.08
2023-03-16T13:26:48.245Z,40.13
2023-03-16T13:29:23.902Z,46.28
2023-03-16T13:31:53.952Z,41.10
2023-03-16T13:34:25.559Z,38.22
2023-03-16T13:36:57.071Z,42.08
2023-03-16T13:39:28.544Z,42.05
2023-03-16T13:42:03.442Z,44.42
2023-03-16T13:44:33.026Z,47.60
2023-03-16T13:47:07.210Z,40.40
2023-03-16T13:49:45.237Z,40.35
2023-03-16T13:52:16.973Z,54.67
2023-03-16T13:54:45.427Z,214.13
2023-03-16T13:57:14.419Z,45.75
2023-03-16T13:59:43.814Z,56.95
2023-03-16T14:02:19.278Z,40.42
2023-03-16T14:04:49.376Z,39.47
2023-03-16T14:07:19.757Z,35.53
2023-03-16T14:09:49.954Z,34.63
2023-03-16T14:12:20.471Z,35.97
2023-03-16T14:14:51.411Z,29.83
2023-03-16T14:17:22.288Z,29.90
2023-03-16T14:19:58.725Z,33.17
2023-03-16T14:22:34.112Z,30.17
2023-03-16T14:25:05.621Z,23.77
2023-03-16T14:27:47.659Z,29.67
2023-03-16T14:30:18.526Z,25.88
2023-03-16T14:32:57.907Z,25.52
2023-03-16T14:35:30.713Z,27.20
2023-03-16T14:38:09.944Z,26.40
2023-03-16T14:40:40.352Z,23.30
2023-03-16T14:43:10.956Z,29.48
2023-03-16T14:45:39.571Z,26.70
2023-03-16T14:48:17.088Z,25.85
2023-03-16T14:50:55.770Z,24.20
2023-03-16T14:53:24.797Z,22.52
2023-03-16T14:55:53.676Z,26.52
2023-03-16T14:58:22.439Z,25.90
2023-03-16T15:00:53.699Z,23.90
2023-03-16T15:03:25.133Z,25.90
2023-03-16T15:05:56.043Z,21.38
2023-03-16T15:08:31.597Z,23.27
2023-03-16T15:11:03.233Z,22.50
2023-03-16T15:13:53.859Z,19.88
2023-03-16T15:16:23.532Z,22.20
2023-03-16T15:18:52.329Z,18.20
2023-03-16T15:21:24.857Z,13.85
2023-03-16T15:23:53.492Z,25.52
2023-03-16T15:26:26.330Z,24.23
2023-03-16T15:28:55.161Z,25.27
2023-03-16T15:31:23.836Z,28.42
2023-03-16T15:33:52.583Z,24.30
2023-03-16T15:36:24.389Z,23.00
2023-03-16T15:38:54.915Z,25.95
2023-03-16T15:41:24.962Z,26.60
2023-03-16T15:44:00.760Z,25.92
2023-03-16T15:46:29.363Z,26.92
2023-03-16T15:48:57.763Z,24.35
2023-03-16T15:51:29.100Z,28.48
2023-03-16T15:53:59.661Z,24.20
2023-03-16T15:56:30.494Z,27.40
2023-03-16T15:59:01.241Z,23.55
2023-03-16T16:01:34.984Z,23.25
2023-03-16T16:04:03.647Z,19.38
2023-03-16T16:06:33.425Z,23.42
2023-03-16T16:09:02.305Z,23.83
2023-03-16T16:11:30.856Z,21.20
2023-03-16T16:13:59.608Z,22.70
2023-03-16T16:16:29.852Z,23.30
2023-03-16T16:18:58.373Z,19.60
2023-03-16T16:21:29.209Z,22.13
2023-03-16T16:23:59.367Z,20.20
2023-03-16T16:26:46.997Z,23.95
2023-03-16T16:29:17.496Z,19.63
2023-03-16T16:31:46.185Z,21.52
2023-03-16T16:34:15.613Z,22.67
2023-03-16T16:36:44.041Z,24.48
2023-03-16T16:39:13.947Z,25.63
2023-03-16T16:41:44.365Z,20.95
2023-03-16T16:44:17.271Z,23.27
2023-03-16T16:46:46.037Z,22.67
2023-03-16T16:49:17.954Z,21.60
2023-03-16T16:51:46.616Z,21.60
2023-03-16T16:54:18.482Z,21.83
2023-03-16T16:56:47.850Z,23.70
2023-03-16T16:59:18.843Z,19.83
2023-03-16T17:01:50.266Z,20.48
2023-03-16T17:04:23.365Z,19.52
2023-03-16T17:06:55.521Z,17.98
2023-03-16T17:09:29.092Z,24.00
2023-03-16T17:11:59.834Z,21.27
2023-03-16T17:14:28.889Z,17.30
2023-03-16T17:16:59.985Z,20.38
2023-03-16T17:19:29.597Z,20.90
2023-03-16T17:21:58.814Z,16.63
2023-03-16T17:24:29.049Z,20.73
2023-03-16T17:26:59.175Z,21.83
2023-03-16T17:29:30.081Z,20.10
2023-03-16T17:31:58.745Z,16.80
2023-03-16T17:34:29.005Z,14.45
2023-03-16T17:36:58.107Z,16.00
2023-03-16T17:39:29.195Z,20.20
2023-03-16T17:41:59.335Z,16.00
2023-03-16T17:44:31.328Z,19.52
2023-03-16T17:46:59.926Z,14.38
2023-03-16T17:49:30.809Z,21.80
2023-03-16T17:51:59.753Z,19.10
2023-03-16T17:54:29.899Z,14.57
2023-03-16T17:56:58.376Z,15.50
2023-03-16T17:59:27.592Z,18.02
2023-03-16T18:01:56.206Z,13.63
2023-03-16T18:04:27.836Z,17.98
2023-03-16T18:06:56.758Z,19.35
2023-03-16T18:09:25.086Z,15.80
2023-03-16T18:11:55.005Z,17.23
2023-03-16T18:14:26.811Z,15.90
2023-03-16T18:16:56.247Z,14.82
2023-03-16T18:19:26.892Z,16.25
2023-03-16T18:21:55.295Z,10.50
2023-03-16T18:24:26.789Z,11.85
2023-03-16T18:26:57.980Z,9.25
2023-03-16T18:29:26.709Z,10.95
2023-03-16T18:31:55.924Z,12.27
2023-03-16T18:34:25.444Z,8.50
2023-03-16T18:36:55.023Z,11.60
2023-03-16T18:39:24.082Z,11.05
2023-03-16T18:41:53.075Z,9.68
2023-03-16T18:44:24.349Z,13.30
2023-03-16T18:46:55.565Z,11.05
2023-03-16T18:49:27.937Z,6.78
2023-03-16T18:51:57.152Z,10.98
2023-03-16T18:54:27.772Z,8.05
2023-03-16T18:56:58.857Z,10.70
2023-03-16T18:59:28.978Z,8.98
2023-03-16T19:01:58.178Z,8.55
2023-03-16T19:04:29.398Z,10.93
2023-03-16T19:06:58.183Z,7.35
2023-03-16T19:09:28.770Z,8.48
2023-03-16T19:11:57.422Z,11.23
2023-03-16T19:14:27.364Z,8.63
2023-03-16T19:16:57.587Z,6.95
2023-03-16T19:19:26.362Z,8.63
2023-03-16T19:21:57.591Z,10.45
2023-03-16T19:24:30.341Z,10.95
2023-03-16T19:26:59.249Z,7.13
2023-03-16T19:29:31.783Z,6.78
2023-03-16T19:32:02.548Z,8.00
2023-03-16T19:34:31.556Z,10.48
2023-03-16T19:37:00.092Z,6.78
2023-03-16T19:39:28.531Z,4.57
2023-03-16T19:41:59.030Z,4.55
2023-03-16T19:44:29.066Z,6.78
2023-03-16T19:46:59.251Z,6.03
2023-03-16T19:49:29.520Z,6.88
2023-03-16T19:51:58.303Z,6.70
2023-03-16T19:54:28.625Z,8.18
2023-03-16T19:56:57.845Z,7.18
2023-03-16T19:59:29.746Z,8.38
2023-03-16T20:01:58.336Z,7.47
2023-03-16T20:04:29.129Z,7.43
2023-03-16T20:06:57.682Z,8.18
2023-03-16T20:09:26.397Z,5.70
2023-03-16T20:11:55.007Z,6.10
2023-03-16T20:14:28.794Z,7.88
2023-03-16T20:16:57.368Z,6.85
2023-03-16T20:19:25.882Z,6.53
2023-03-16T20:21:56.281Z,6.43
2023-03-16T20:24:24.849Z,7.68
2023-03-16T20:26:54.129Z,8.55
2023-03-16T20:29:25.370Z,7.72
2023-03-16T20:31:53.871Z,8.45
2023-03-16T20:34:24.179Z,10.40
2023-03-16T20:36:53.230Z,9.55
2023-03-16T20:39:22.892Z,8.10
2023-03-16T20:41:52.190Z,6.93
2023-03-16T20:44:22.242Z,8.15
2023-03-16T20:46:51.058Z,8.32
2023-03-16T20:49:31.429Z,11.25
2023-03-16T20:52:00.087Z,8.93
2023-03-16T20:54:29.894Z,9.25
2023-03-16T20:56:58.864Z,9.15
2023-03-16T20:59:28.391Z,7.75
2023-03-16T21:02:01.260Z,9.18
2023-03-16T21:04:30.165Z,6.20
2023-03-16T21:06:58.663Z,6.53
2023-03-16T21:09:27.851Z,7.97
2023-03-16T21:11:57.713Z,4.85
2023-03-16T21:14:26.376Z,7.70
2023-03-16T21:16:55.386Z,8.82
2023-03-16T21:19:25.011Z,7.05
2023-03-16T21:21:53.298Z,7.80
2023-03-16T21:24:22.716Z,7.50
2023-03-16T21:26:51.268Z,7.28
2023-03-16T21:29:24.550Z,7.43
2023-03-16T21:31:53.005Z,5.65
2023-03-16T21:34:25.159Z,6.65
2023-03-16T21:36:55.398Z,7.47
2023-03-16T21:39:25.372Z,6.38
2023-03-16T21:41:54.405Z,6.63
2023-03-16T21:44:24.423Z,5.20
2023-03-16T21:46:53.890Z,7.57
2023-03-16T21:49:22.439Z,7.55
2023-03-16T21:51:51.933Z,4.13
2023-03-16T21:54:20.443Z,4.78
2023-03-16T21:56:49.011Z,4.32
2023-03-16T21:59:17.579Z,7.35
2023-03-16T22:02:01.311Z,5.95
2023-03-16T22:04:30.872Z,6.03
2023-03-16T22:06:59.400Z,5.47
2023-03-16T22:09:30.371Z,7.20
2023-03-16T22:11:59.357Z,3.97
2023-03-16T22:14:28.307Z,6.72
2023-03-16T22:16:58.251Z,5.22
2023-03-16T22:19:27.395Z,4.45
2023-03-16T22:21:56.969Z,4.68
2023-03-16T22:24:27.577Z,4.28
2023-03-16T22:26:57.014Z,5.13
2023-03-16T22:29:26.660Z,4.00
2023-03-16T22:32:03.067Z,3.38
2023-03-16T22:34:33.979Z,4.43
2023-03-16T22:37:02.884Z,4.25
2023-03-16T22:39:32.823Z,5.45
2023-03-16T22:42:01.517Z,3.70
2023-03-16T22:44:29.981Z,4.82
2023-03-16T22:47:00.504Z,8.13
2023-03-16T22:49:29.552Z,2.30
2023-03-16T22:51:58.912Z,2.33
2023-03-16T22:54:28.932Z,5.75
2023-03-16T22:56:57.747Z,3.72
2023-03-16T22:59:26.680Z,4.05
2023-03-16T23:01:55.115Z,3.90
2023-03-16T23:04:30.079Z,2.83
2023-03-16T23:06:59.124Z,4.13
2023-03-16T23:09:27.572Z,4.95
2023-03-16T23:11:57.616Z,3.17
2023-03-16T23:14:29.185Z,2.40
2023-03-16T23:16:57.921Z,3.53
2023-03-16T23:19:30.042Z,5.47
2023-03-16T23:22:01.099Z,2.28
2023-03-16T23:24:29.558Z,3.38
2023-03-16T23:26:58.251Z,5.60
2023-03-16T23:29:27.356Z,4.72
2023-03-16T23:31:56.616Z,3.88
2023-03-16T23:34:28.054Z,2.97
2023-03-16T23:36:56.876Z,2.85
2023-03-16T23:39:26.153Z,3.47
2023-03-16T23:41:54.535Z,3.20
2023-03-16T23:44:25.068Z,4.43
2023-03-16T23:46:53.950Z,3.50
2023-03-16T23:49:23.811Z,4.15
2023-03-16T23:51:54.065Z,5.60
2023-03-16T23:54:24.348Z,4.25
2023-03-16T23:56:54.949Z,3.67
2023-03-16T23:59:23.898Z,4.05
